createdAt,value
2019-02-06T00:00:59.493Z,1022.52
2019-02-06T00:01:59.521Z,1022.50
2019-02-06T00:02:59.510Z,1022.55
2019-02-06T00:03:59.466Z,1022.57
2019-02-06T00:04:59.459Z,1022.47
2019-02-06T00:05:59.466Z,1022.43
2019-02-06T00:06:59.438Z,1022.47
2019-02-06T00:07:59.513Z,1022.58
2019-02-06T00:08:59.422Z,1022.63
2019-02-06T00:09:59.410Z,1022.50
2019-02-06T00:10:59.403Z,1022.62
2019-02-06T00:42:53.238Z,1022.65
2019-02-06T00:43:21.191Z,1022.57
2019-02-06T00:44:21.228Z,1022.58
2019-02-06T00:45:21.168Z,1022.60
2019-02-06T00:46:21.150Z,1022.63
2019-02-06T00:47:21.136Z,1022.60
2019-02-06T00:48:21.124Z,1022.49
2019-02-06T00:49:21.126Z,1022.51
2019-02-06T00:50:21.106Z,1022.44
2019-02-06T00:51:21.106Z,1022.53
2019-02-06T00:52:21.089Z,1022.51
2019-02-06T00:53:21.066Z,1022.52
2019-02-06T00:54:21.091Z,1022.50
2019-02-06T00:55:21.060Z,1022.48
2019-02-06T00:56:21.046Z,1022.53
2019-02-06T00:57:21.047Z,1022.51
2019-02-06T00:58:21.021Z,1022.58
2019-02-06T00:59:21.033Z,1022.50
2019-02-06T01:00:21.000Z,1022.49
2019-02-06T01:01:20.985Z,1022.46
2019-02-06T01:02:20.987Z,1022.52
2019-02-06T01:03:20.982Z,1022.49
2019-02-06T01:04:20.965Z,1022.50
2019-02-06T01:05:20.973Z,1022.53
2019-02-06T01:06:20.942Z,1022.50
2019-02-06T01:07:20.933Z,1022.48
2019-02-06T01:08:20.925Z,1022.53
2019-02-06T01:09:20.890Z,1022.51
2019-02-06T01:10:20.909Z,1022.56
2019-02-06T01:11:20.887Z,1022.53
2019-02-06T01:12:20.894Z,1022.60
2019-02-06T01:13:20.859Z,1022.56
2019-02-06T01:14:20.860Z,1022.58
2019-02-06T01:15:20.858Z,1022.62
2019-02-06T01:16:20.842Z,1022.62
2019-02-06T01:17:20.812Z,1022.58
2019-02-06T01:18:20.810Z,1022.66
2019-02-06T01:19:20.801Z,1022.62
2019-02-06T01:20:20.806Z,1022.62
2019-02-06T01:21:20.792Z,1022.61
2019-02-06T01:22:20.767Z,1022.56
2019-02-06T01:23:20.753Z,1022.57
2019-02-06T01:24:20.759Z,1022.60
2019-02-06T01:25:20.748Z,1022.53
2019-02-06T01:26:20.716Z,1022.61
2019-02-06T01:27:20.719Z,1022.59
2019-02-06T01:28:20.697Z,1022.55
2019-02-06T01:29:20.683Z,1022.55
2019-02-06T01:30:20.697Z,1022.58
2019-02-06T01:31:20.676Z,1022.51
2019-02-06T01:32:20.657Z,1022.61
2019-02-06T01:33:20.637Z,1022.53
2019-02-06T01:34:20.632Z,1022.55
2019-02-06T01:35:20.639Z,1022.52
2019-02-06T01:36:20.614Z,1022.67
2019-02-06T01:37:20.591Z,1022.58
2019-02-06T01:38:20.592Z,1022.57
2019-02-06T01:39:20.571Z,1022.59
2019-02-06T01:40:20.579Z,1022.63
2019-02-06T01:41:20.549Z,1022.61
2019-02-06T01:42:20.566Z,1022.68
2019-02-06T01:43:20.546Z,1022.63
2019-02-06T01:44:20.532Z,1022.62
2019-02-06T01:45:20.532Z,1022.65
2019-02-06T01:46:20.500Z,1022.76
2019-02-06T01:47:20.486Z,1022.57
2019-02-06T01:48:20.486Z,1022.64
2019-02-06T01:49:20.474Z,1022.64
2019-02-06T01:50:20.472Z,1022.62
2019-02-06T01:51:20.440Z,1022.57
2019-02-06T01:52:20.422Z,1022.61
2019-02-06T01:53:20.425Z,1022.59
2019-02-06T01:54:20.414Z,1022.60
2019-02-06T01:55:20.449Z,1022.60
2019-02-06T01:56:20.396Z,1022.59
2019-02-06T01:57:20.386Z,1022.54
2019-02-06T01:58:20.356Z,1022.57
2019-02-06T01:59:20.360Z,1022.59
2019-02-06T02:00:20.435Z,1022.61
2019-02-06T02:01:20.348Z,1022.61
2019-02-06T02:02:20.324Z,1022.64
2019-02-06T02:03:20.314Z,1022.63
2019-02-06T02:04:20.296Z,1022.62
2019-02-06T02:05:20.303Z,1022.62
2019-02-06T02:06:20.304Z,1022.65
2019-02-06T02:07:20.269Z,1022.57
2019-02-06T02:08:20.263Z,1022.59
2019-02-06T02:09:20.255Z,1022.60
2019-02-06T02:10:20.238Z,1022.56
2019-02-06T02:11:20.256Z,1022.58
2019-02-06T02:12:20.211Z,1022.55
2019-02-06T02:13:20.204Z,1022.50
2019-02-06T02:14:20.212Z,1022.49
2019-02-06T02:15:20.171Z,1022.46
2019-02-06T02:16:20.181Z,1022.46
2019-02-06T02:17:20.167Z,1022.49
2019-02-06T02:18:20.156Z,1022.61
2019-02-06T02:19:20.128Z,1022.44
2019-02-06T02:20:20.123Z,1022.49
2019-02-06T02:21:20.142Z,1022.49
2019-02-06T02:22:20.102Z,1022.62
2019-02-06T02:23:20.092Z,1022.66
2019-02-06T02:24:20.098Z,1022.57
2019-02-06T02:25:20.073Z,1022.66
2019-02-06T02:26:20.055Z,1022.54
2019-02-06T02:27:20.074Z,1022.53
2019-02-06T02:28:20.045Z,1022.59
2019-02-06T02:29:20.034Z,1022.74
2019-02-06T02:30:20.013Z,1022.72
2019-02-06T02:31:20.009Z,1022.72
2019-02-06T02:32:20.029Z,1022.64
2019-02-06T02:33:19.981Z,1022.73
2019-02-06T02:34:19.972Z,1022.76
2019-02-06T02:35:19.963Z,1022.67
2019-02-06T02:36:19.950Z,1022.60
2019-02-06T02:37:19.960Z,1022.66
2019-02-06T02:38:19.929Z,1022.60
2019-02-06T02:39:19.928Z,1022.64
2019-02-06T02:40:19.900Z,1022.63
2019-02-06T02:41:19.907Z,1022.64
2019-02-06T02:42:19.898Z,1022.68
2019-02-06T02:43:19.871Z,1022.75
2019-02-06T02:44:19.859Z,1022.68
2019-02-06T02:45:19.843Z,1022.76
2019-02-06T02:46:19.836Z,1022.60
2019-02-06T02:47:19.853Z,1022.68
2019-02-06T02:48:19.827Z,1022.76
2019-02-06T02:49:19.801Z,1022.76
2019-02-06T02:50:19.808Z,1022.74
2019-02-06T02:51:19.779Z,1022.76
2019-02-06T02:52:19.789Z,1022.76
2019-02-06T02:53:19.757Z,1022.64
2019-02-06T02:54:19.748Z,1022.73
2019-02-06T02:55:19.749Z,1022.63
2019-02-06T02:56:19.760Z,1022.61
2019-02-06T02:57:19.762Z,1022.59
2019-02-06T02:58:19.712Z,1022.55
2019-02-06T02:59:19.701Z,1022.66
2019-02-06T03:00:19.695Z,1022.54
2019-02-06T03:01:19.685Z,1022.52
2019-02-06T03:02:19.681Z,1022.58
2019-02-06T03:03:19.655Z,1022.56
2019-02-06T03:04:19.639Z,1022.57
2019-02-06T03:05:19.635Z,1022.52
2019-02-06T03:06:27.766Z,1022.57
2019-02-06T03:07:20.616Z,1022.48
2019-02-06T03:08:19.649Z,1022.47
2019-02-06T03:09:19.595Z,1022.50
2019-02-06T03:10:19.576Z,1022.55
2019-02-06T03:11:19.570Z,1022.57
2019-02-06T03:12:19.600Z,1022.56
2019-02-06T03:13:19.538Z,1022.60
2019-02-06T03:14:19.522Z,1022.67
2019-02-06T03:15:19.517Z,1022.69
2019-02-06T03:16:19.501Z,1022.63
2019-02-06T03:17:19.522Z,1022.67
2019-02-06T03:18:19.498Z,1022.58
2019-02-06T03:19:19.468Z,1022.53
2019-02-06T03:20:19.467Z,1022.48
2019-02-06T03:21:19.453Z,1022.50
2019-02-06T03:22:19.465Z,1022.45
2019-02-06T03:23:19.437Z,1022.47
2019-02-06T03:24:19.416Z,1022.50
2019-02-06T03:25:19.410Z,1022.59
2019-02-06T03:26:19.408Z,1022.59
2019-02-06T03:27:19.404Z,1022.57
2019-02-06T03:28:19.393Z,1022.44
2019-02-06T03:29:19.357Z,1022.41
2019-02-06T03:30:19.730Z,1022.35
2019-02-06T03:35:10.515Z,1022.44
2019-02-06T03:35:49.486Z,1022.42
2019-02-06T03:36:49.480Z,1022.60
2019-02-06T03:37:49.475Z,1022.44
2019-02-06T03:38:49.475Z,1022.40
2019-02-06T03:39:49.450Z,1022.45
2019-02-06T03:40:49.434Z,1022.42
2019-02-06T03:41:49.416Z,1022.44
2019-02-06T03:42:49.401Z,1022.38
2019-02-06T03:43:49.416Z,1022.59
2019-02-06T03:44:49.390Z,1022.50
2019-02-06T03:45:49.377Z,1022.53
2019-02-06T03:46:49.359Z,1022.38
2019-02-06T03:47:49.361Z,1022.38
2019-02-06T03:48:49.359Z,1022.51
2019-02-06T03:49:49.338Z,1022.47
2019-02-06T03:50:49.351Z,1022.49
2019-02-06T03:51:49.333Z,1022.28
2019-02-06T03:52:49.308Z,1022.39
2019-02-06T03:53:49.298Z,1022.31
2019-02-06T03:54:49.279Z,1022.30
2019-02-06T03:55:49.270Z,1022.27
2019-02-06T03:56:49.254Z,1022.31
2019-02-06T03:57:49.236Z,1022.37
2019-02-06T03:58:49.253Z,1022.33
2019-02-06T03:59:49.221Z,1022.27
2019-02-06T04:00:49.207Z,1022.25
2019-02-06T04:01:49.206Z,1022.34
2019-02-06T04:02:49.198Z,1022.28
2019-02-06T04:03:49.191Z,1022.28
2019-02-06T04:04:49.165Z,1022.31
2019-02-06T04:05:49.159Z,1022.29
2019-02-06T04:06:54.996Z,1022.41
2019-02-06T04:07:50.140Z,1022.33
2019-02-06T04:08:49.135Z,1022.36
2019-02-06T04:09:49.113Z,1022.46
2019-02-06T04:10:49.235Z,1022.51
2019-02-06T04:11:49.216Z,1022.54
2019-02-06T04:12:49.077Z,1022.41
2019-02-06T04:13:49.094Z,1022.32
2019-02-06T04:14:49.059Z,1022.20
2019-02-06T04:15:49.041Z,1022.27
2019-02-06T04:16:49.120Z,1022.34
2019-02-06T04:17:49.026Z,1022.25
2019-02-06T04:18:49.029Z,1022.32
2019-02-06T04:19:49.033Z,1022.21
2019-02-06T04:20:48.994Z,1022.19
2019-02-06T04:21:48.988Z,1022.36
2019-02-06T04:22:49.024Z,1022.35
2019-02-06T04:23:48.961Z,1022.17
2019-02-06T04:24:51.528Z,1022.19
2019-02-06T04:25:48.930Z,1022.10
2019-02-06T04:26:48.932Z,1022.09
2019-02-06T04:27:48.905Z,1022.15
2019-02-06T04:28:48.904Z,1022.18
2019-02-06T04:29:48.910Z,1022.21
2019-02-06T04:30:48.895Z,1022.17
2019-02-06T04:31:48.867Z,1022.17
2019-02-06T04:32:48.866Z,1022.16
2019-02-06T04:33:48.881Z,1022.29
2019-02-06T04:34:48.833Z,1022.27
2019-02-06T04:35:48.849Z,1022.27
2019-02-06T04:36:48.818Z,1022.23
2019-02-06T04:37:48.810Z,1022.40
2019-02-06T04:38:48.800Z,1022.34
2019-02-06T04:39:48.788Z,1022.18
2019-02-06T04:40:48.776Z,1022.14
2019-02-06T04:41:48.759Z,1022.21
2019-02-06T04:42:48.751Z,1022.22
2019-02-06T04:43:48.743Z,1022.25
2019-02-06T04:44:48.734Z,1022.28
2019-02-06T04:45:48.738Z,1022.28
2019-02-06T04:46:48.742Z,1022.23
2019-02-06T04:47:48.692Z,1022.21
2019-02-06T04:48:48.676Z,1022.23
2019-02-06T04:49:48.674Z,1022.17
2019-02-06T04:50:48.682Z,1022.16
2019-02-06T04:51:48.650Z,1022.13
2019-02-06T04:52:48.650Z,1022.10
2019-02-06T04:53:48.624Z,1022.10
2019-02-06T04:54:48.623Z,1022.11
2019-02-06T04:55:48.603Z,1022.12
2019-02-06T04:56:48.612Z,1022.09
2019-02-06T04:57:48.586Z,1022.09
2019-02-06T04:58:48.584Z,1022.07
2019-02-06T04:59:48.583Z,1022.03
2019-02-06T05:00:48.569Z,1022.08
2019-02-06T05:01:48.550Z,1022.01
2019-02-06T05:02:48.516Z,1022.05
2019-02-06T05:03:48.516Z,1021.98
2019-02-06T05:04:48.508Z,1022.01
2019-02-06T05:05:48.488Z,1022.06
2019-02-06T05:06:48.504Z,1022.01
2019-02-06T05:07:48.485Z,1022.10
2019-02-06T05:08:48.449Z,1022.03
2019-02-06T05:09:48.456Z,1022.08
2019-02-06T05:10:48.433Z,1022.04
2019-02-06T05:11:48.432Z,1022.12
2019-02-06T05:12:48.441Z,1022.11
2019-02-06T05:13:48.454Z,1022.06
2019-02-06T05:14:48.401Z,1022.08
2019-02-06T05:15:48.389Z,1022.08
2019-02-06T05:16:48.371Z,1022.08
2019-02-06T05:17:48.377Z,1022.06
2019-02-06T05:18:48.347Z,1022.06
2019-02-06T05:19:48.335Z,1022.02
2019-02-06T05:20:48.333Z,1022.05
2019-02-06T05:21:48.325Z,1022.16
2019-02-06T05:22:48.325Z,1022.13
2019-02-06T05:23:48.291Z,1022.00
2019-02-06T05:24:48.297Z,1021.97
2019-02-06T05:25:48.280Z,1021.94
2019-02-06T05:26:48.273Z,1022.12
2019-02-06T05:27:48.281Z,1022.10
2019-02-06T05:28:48.238Z,1022.12
2019-02-06T05:29:48.224Z,1022.10
2019-02-06T05:30:48.224Z,1022.11
2019-02-06T05:31:48.207Z,1022.12
2019-02-06T05:32:48.205Z,1022.04
2019-02-06T05:33:48.204Z,1021.98
2019-02-06T05:34:48.191Z,1022.01
2019-02-06T05:35:48.169Z,1022.01
2019-02-06T05:36:50.782Z,1021.95
2019-02-06T05:37:48.153Z,1022.03
2019-02-06T05:38:48.168Z,1021.99
2019-02-06T05:39:48.129Z,1022.13
2019-02-06T05:40:48.114Z,1022.09
2019-02-06T05:41:48.101Z,1022.03
2019-02-06T05:42:48.093Z,1022.10
2019-02-06T05:43:48.101Z,1022.09
2019-02-06T05:44:48.071Z,1022.06
2019-02-06T05:45:48.059Z,1022.06
2019-02-06T05:46:48.057Z,1022.08
2019-02-06T05:47:48.062Z,1022.12
2019-02-06T05:48:49.389Z,1022.07
2019-02-06T05:49:48.016Z,1021.96
2019-02-06T05:50:48.001Z,1022.02
2019-02-06T05:51:48.007Z,1021.94
2019-02-06T05:52:47.984Z,1021.93
2019-02-06T05:53:47.967Z,1022.14
2019-02-06T05:54:47.971Z,1021.90
2019-02-06T05:55:47.947Z,1021.97
2019-02-06T05:56:47.935Z,1021.90
2019-02-06T05:57:47.938Z,1021.94
2019-02-06T05:58:47.920Z,1022.11
2019-02-06T05:59:47.944Z,1022.16
2019-02-06T06:00:47.890Z,1022.16
2019-02-06T06:01:47.888Z,1022.10
2019-02-06T06:02:47.871Z,1022.06
2019-02-06T06:03:47.864Z,1022.16
2019-02-06T06:04:47.871Z,1022.06
2019-02-06T06:05:47.842Z,1022.02
2019-02-06T06:06:47.844Z,1022.04
2019-02-06T06:07:47.820Z,1022.02
2019-02-06T06:08:47.818Z,1022.05
2019-02-06T06:09:47.837Z,1022.05
2019-02-06T06:10:47.785Z,1022.10
2019-02-06T06:11:47.786Z,1022.02
2019-02-06T06:12:47.767Z,1022.06
2019-02-06T06:13:47.767Z,1022.18
2019-02-06T06:14:47.746Z,1022.20
2019-02-06T06:15:47.742Z,1022.23
2019-02-06T06:16:47.726Z,1022.26
2019-02-06T06:17:47.707Z,1022.26
2019-02-06T06:18:47.692Z,1022.18
2019-02-06T06:19:47.681Z,1022.11
2019-02-06T06:20:47.687Z,1022.13
2019-02-06T06:21:47.668Z,1022.08
2019-02-06T06:22:47.658Z,1022.04
2019-02-06T06:23:47.659Z,1022.08
2019-02-06T06:24:47.631Z,1022.15
2019-02-06T06:25:47.637Z,1022.10
2019-02-06T06:26:47.622Z,1022.11
2019-02-06T06:27:47.609Z,1022.16
2019-02-06T06:28:47.583Z,1021.95
2019-02-06T06:29:47.584Z,1021.99
2019-02-06T06:30:47.639Z,1022.03
2019-02-06T06:31:47.557Z,1022.05
2019-02-06T06:32:47.548Z,1022.04
2019-02-06T06:33:47.537Z,1022.08
2019-02-06T06:34:47.519Z,1022.07
2019-02-06T06:35:47.529Z,1022.02
2019-02-06T06:36:47.512Z,1021.98
2019-02-06T06:37:57.790Z,1021.98
2019-02-06T06:38:48.485Z,1021.97
2019-02-06T06:39:47.483Z,1022.00
2019-02-06T06:40:47.465Z,1021.97
2019-02-06T06:41:47.472Z,1022.01
2019-02-06T06:42:47.448Z,1022.03
2019-02-06T06:43:47.429Z,1022.10
2019-02-06T06:44:47.423Z,1022.01
2019-02-06T06:45:47.414Z,1021.97
2019-02-06T06:46:47.421Z,1022.00
2019-02-06T06:47:47.393Z,1022.00
2019-02-06T06:48:47.391Z,1021.96
2019-02-06T06:49:47.369Z,1021.99
2019-02-06T06:50:47.356Z,1021.93
2019-02-06T06:51:47.359Z,1022.05
2019-02-06T06:52:47.343Z,1021.89
2019-02-06T06:53:47.317Z,1021.98
2019-02-06T06:54:47.313Z,1021.89
2019-02-06T06:55:47.305Z,1021.98
2019-02-06T06:56:47.315Z,1022.01
2019-02-06T06:57:47.339Z,1021.90
2019-02-06T06:58:47.266Z,1021.88
2019-02-06T06:59:47.266Z,1021.80
2019-02-06T07:00:47.259Z,1021.99
2019-02-06T07:01:47.275Z,1021.95
2019-02-06T07:02:47.241Z,1021.82
2019-02-06T07:03:47.234Z,1021.85
2019-02-06T07:04:47.240Z,1021.79
2019-02-06T07:05:47.194Z,1021.78
2019-02-06T07:06:47.180Z,1021.81
2019-02-06T07:07:47.268Z,1021.84
2019-02-06T07:08:47.152Z,1021.79
2019-02-06T07:09:47.150Z,1021.82
2019-02-06T07:10:47.132Z,1021.76
2019-02-06T07:11:47.123Z,1021.83
2019-02-06T07:12:47.154Z,1021.75
2019-02-06T07:13:47.108Z,1021.77
2019-02-06T07:14:47.080Z,1021.75
2019-02-06T07:15:47.084Z,1021.74
2019-02-06T07:16:47.095Z,1021.69
2019-02-06T07:17:47.099Z,1021.62
2019-02-06T07:18:47.055Z,1021.62
2019-02-06T07:19:47.048Z,1021.65
2019-02-06T07:20:47.028Z,1021.62
2019-02-06T07:21:47.032Z,1021.68
2019-02-06T07:22:47.046Z,1021.76
2019-02-06T07:23:47.036Z,1021.69
2019-02-06T07:24:46.983Z,1021.72
2019-02-06T07:25:47.020Z,1021.59
2019-02-06T07:26:46.954Z,1021.56
2019-02-06T07:27:46.964Z,1021.51
2019-02-06T07:28:46.961Z,1021.52
2019-02-06T07:29:46.960Z,1021.64
2019-02-06T07:30:46.920Z,1021.66
2019-02-06T07:31:46.942Z,1021.64
2019-02-06T07:32:46.923Z,1021.61
2019-02-06T07:33:46.927Z,1021.66
2019-02-06T07:34:46.881Z,1021.54
2019-02-06T07:35:46.889Z,1021.52
2019-02-06T07:36:46.850Z,1021.47
2019-02-06T07:37:46.849Z,1021.44
2019-02-06T07:38:46.845Z,1021.56
2019-02-06T07:39:46.850Z,1021.51
2019-02-06T07:40:46.816Z,1021.48
2019-02-06T07:41:46.804Z,1021.59
2019-02-06T07:42:46.779Z,1021.60
2019-02-06T07:43:46.791Z,1021.59
2019-02-06T07:44:46.775Z,1021.61
2019-02-06T07:45:46.757Z,1021.61
2019-02-06T07:46:46.745Z,1021.62
2019-02-06T07:47:46.737Z,1021.76
2019-02-06T07:48:46.745Z,1021.73
2019-02-06T07:49:46.725Z,1021.72
2019-02-06T07:50:46.716Z,1021.75
2019-02-06T07:51:46.679Z,1021.67
2019-02-06T07:52:46.692Z,1021.66
2019-02-06T07:53:46.708Z,1021.69
2019-02-06T07:54:46.661Z,1021.77
2019-02-06T07:55:46.651Z,1021.76
2019-02-06T07:56:46.635Z,1021.66
2019-02-06T07:57:46.641Z,1021.70
2019-02-06T07:58:46.612Z,1021.71
2019-02-06T07:59:46.626Z,1021.68
2019-02-06T08:00:46.593Z,1021.85
2019-02-06T08:01:46.575Z,1021.86
2019-02-06T08:02:46.570Z,1021.71
2019-02-06T08:03:46.561Z,1021.67
2019-02-06T08:04:46.561Z,1021.74
2019-02-06T08:05:46.540Z,1021.70
2019-02-06T08:06:46.536Z,1021.70
2019-02-06T08:07:46.514Z,1021.73
2019-02-06T08:08:46.494Z,1021.63
2019-02-06T08:09:46.508Z,1021.63
2019-02-06T08:10:46.485Z,1021.65
2019-02-06T08:11:46.481Z,1021.62
2019-02-06T08:12:46.464Z,1021.65
2019-02-06T08:13:46.472Z,1021.61
2019-02-06T08:14:46.457Z,1021.56
2019-02-06T08:15:46.426Z,1021.63
2019-02-06T08:16:46.436Z,1021.67
2019-02-06T08:17:46.409Z,1021.60
2019-02-06T08:18:46.407Z,1021.65
2019-02-06T08:19:46.404Z,1021.58
2019-02-06T08:20:46.375Z,1021.60
2019-02-06T08:21:46.368Z,1021.56
2019-02-06T08:22:46.363Z,1021.60
2019-02-06T08:23:46.351Z,1021.57
2019-02-06T08:24:46.349Z,1021.61
2019-02-06T08:25:46.314Z,1021.56
2019-02-06T08:26:46.316Z,1021.56
2019-02-06T08:27:46.307Z,1021.52
2019-02-06T08:28:46.297Z,1021.53
2019-02-06T08:29:46.291Z,1021.49
2019-02-06T08:30:46.314Z,1021.53
2019-02-06T08:31:46.261Z,1021.45
2019-02-06T08:32:46.250Z,1021.65
2019-02-06T08:33:46.247Z,1021.62
2019-02-06T08:34:46.258Z,1021.47
2019-02-06T08:35:46.213Z,1021.49
2019-02-06T08:36:46.210Z,1021.55
2019-02-06T08:37:46.200Z,1021.51
2019-02-06T08:38:47.898Z,1021.49
2019-02-06T08:39:46.207Z,1021.42
2019-02-06T08:40:46.156Z,1021.43
2019-02-06T08:41:46.147Z,1021.50
2019-02-06T08:42:46.144Z,1021.53
2019-02-06T08:43:46.131Z,1021.47
2019-02-06T08:44:46.114Z,1021.49
2019-02-06T08:45:46.125Z,1021.39
2019-02-06T08:46:46.090Z,1021.25
2019-02-06T08:47:46.079Z,1021.29
2019-02-06T08:48:46.076Z,1021.27
2019-02-06T08:49:46.052Z,1021.27
2019-02-06T08:50:46.077Z,1021.25
2019-02-06T08:51:46.040Z,1021.48
2019-02-06T08:52:46.026Z,1021.43
2019-02-06T08:53:46.010Z,1021.34
2019-02-06T08:54:46.033Z,1021.33
2019-02-06T08:55:46.017Z,1021.20
2019-02-06T08:56:46.031Z,1021.22
2019-02-06T08:57:45.983Z,1021.21
2019-02-06T08:58:45.969Z,1021.17
2019-02-06T08:59:45.946Z,1021.13
2019-02-06T09:00:45.952Z,1021.15
2019-02-06T09:01:45.931Z,1021.13
2019-02-06T09:02:45.929Z,1021.05
2019-02-06T09:03:45.919Z,1021.26
2019-02-06T09:04:55.465Z,1021.15
2019-02-06T09:05:46.913Z,1021.08
2019-02-06T09:06:45.872Z,1021.14
2019-02-06T09:07:45.854Z,1021.10
2019-02-06T09:08:45.851Z,1021.08
2019-02-06T09:09:45.841Z,1021.10
2019-02-06T09:10:45.864Z,1021.11
2019-02-06T09:11:45.826Z,1021.11
2019-02-06T09:12:45.804Z,1021.15
2019-02-06T09:13:45.790Z,1021.18
2019-02-06T09:14:45.805Z,1021.11
2019-02-06T09:15:45.794Z,1021.20
2019-02-06T09:16:45.789Z,1021.12
2019-02-06T09:17:45.747Z,1021.14
2019-02-06T09:18:45.745Z,1021.19
2019-02-06T09:19:45.727Z,1021.30
2019-02-06T09:20:46.171Z,1021.29
2019-02-06T09:21:45.705Z,1021.15
2019-02-06T09:22:45.695Z,1021.26
2019-02-06T09:23:45.693Z,1021.31
2019-02-06T09:24:45.681Z,1021.23
2019-02-06T09:25:45.659Z,1021.25
2019-02-06T09:26:45.673Z,1021.26
2019-02-06T09:27:45.642Z,1021.18
2019-02-06T09:28:45.638Z,1021.21
2019-02-06T09:29:45.632Z,1021.20
2019-02-06T09:30:45.633Z,1021.21
2019-02-06T09:31:45.634Z,1021.21
2019-02-06T09:32:45.600Z,1021.16
2019-02-06T09:33:45.575Z,1021.24
2019-02-06T09:34:45.567Z,1021.32
2019-02-06T09:35:45.574Z,1021.31
2019-02-06T09:36:45.567Z,1021.35
2019-02-06T09:37:45.539Z,1021.19
2019-02-06T09:38:45.521Z,1021.12
2019-02-06T09:39:45.511Z,1021.18
2019-02-06T09:40:45.498Z,1021.21
2019-02-06T09:41:45.574Z,1021.13
2019-02-06T09:42:45.497Z,1021.08
2019-02-06T09:43:45.471Z,1021.17
2019-02-06T09:44:45.465Z,1021.04
2019-02-06T09:45:45.449Z,1021.02
2019-02-06T09:46:45.455Z,1021.02
2019-02-06T09:47:45.436Z,1020.95
2019-02-06T09:48:45.427Z,1020.94
2019-02-06T09:49:45.407Z,1020.94
2019-02-06T09:50:45.413Z,1020.95
2019-02-06T09:51:45.396Z,1020.92
2019-02-06T09:52:45.458Z,1020.97
2019-02-06T09:53:45.363Z,1020.99
2019-02-06T09:54:45.337Z,1020.94
2019-02-06T09:55:45.345Z,1020.96
2019-02-06T09:56:45.346Z,1020.94
2019-02-06T09:57:45.324Z,1021.01
2019-02-06T09:58:45.304Z,1020.95
2019-02-06T09:59:45.311Z,1021.04
2019-02-06T10:00:45.276Z,1021.02
2019-02-06T10:01:45.288Z,1021.00
2019-02-06T10:02:45.266Z,1021.06
2019-02-06T10:03:46.968Z,1020.84
2019-02-06T10:04:45.234Z,1020.98
2019-02-06T10:05:45.222Z,1020.85
2019-02-06T10:06:45.237Z,1020.87
2019-02-06T10:07:46.266Z,1020.83
2019-02-06T10:08:45.265Z,1020.90
2019-02-06T10:09:45.189Z,1020.90
2019-02-06T10:10:45.167Z,1020.82
2019-02-06T10:11:45.180Z,1020.81
2019-02-06T10:12:45.163Z,1020.80
2019-02-06T10:13:45.217Z,1020.77
2019-02-06T10:14:45.128Z,1020.72
2019-02-06T10:15:45.116Z,1020.84
2019-02-06T10:16:45.134Z,1020.71
2019-02-06T10:17:45.095Z,1020.76
2019-02-06T10:18:45.082Z,1020.79
2019-02-06T10:19:45.066Z,1020.72
2019-02-06T10:20:45.063Z,1020.69
2019-02-06T10:21:45.073Z,1020.79
2019-02-06T10:22:45.042Z,1020.66
2019-02-06T10:23:45.033Z,1020.73
2019-02-06T10:24:45.018Z,1020.66
2019-02-06T10:25:45.002Z,1020.61
2019-02-06T10:26:45.002Z,1020.53
2019-02-06T10:27:44.982Z,1020.53
2019-02-06T10:28:44.988Z,1020.46
2019-02-06T10:29:44.967Z,1020.39
2019-02-06T10:30:44.950Z,1020.55
2019-02-06T10:31:44.967Z,1020.53
2019-02-06T10:32:44.929Z,1020.40
2019-02-06T10:33:44.910Z,1020.33
2019-02-06T10:34:44.926Z,1020.44
2019-02-06T10:35:44.895Z,1020.31
2019-02-06T10:36:44.894Z,1020.25
2019-02-06T10:37:44.916Z,1020.27
2019-02-06T10:38:44.851Z,1020.30
2019-02-06T10:39:44.861Z,1020.19
2019-02-06T10:40:44.843Z,1020.24
2019-02-06T10:41:44.862Z,1020.24
2019-02-06T10:42:44.823Z,1020.27
2019-02-06T10:43:44.799Z,1020.30
2019-02-06T10:44:44.795Z,1020.29
2019-02-06T10:45:44.788Z,1020.34
2019-02-06T10:46:44.775Z,1020.20
2019-02-06T10:47:44.786Z,1020.33
2019-02-06T10:48:44.760Z,1020.18
2019-02-06T10:49:44.736Z,1020.10
2019-02-06T10:50:44.724Z,1020.10
2019-02-06T10:51:44.721Z,1020.14
2019-02-06T10:52:44.740Z,1020.07
2019-02-06T10:53:44.727Z,1020.03
2019-02-06T10:54:44.711Z,1020.21
2019-02-06T10:55:44.693Z,1020.20
2019-02-06T10:56:44.669Z,1020.27
2019-02-06T10:57:44.657Z,1020.29
2019-02-06T10:58:44.651Z,1020.13
2019-02-06T10:59:44.617Z,1020.14
2019-02-06T11:00:44.626Z,1020.12
2019-02-06T11:01:44.648Z,1020.11
2019-02-06T11:02:44.607Z,1020.10
2019-02-06T11:03:44.595Z,1020.14
2019-02-06T11:04:44.579Z,1020.05
2019-02-06T11:05:44.555Z,1020.00
2019-02-06T11:06:44.539Z,1020.02
2019-02-06T11:07:46.213Z,1019.97
2019-02-06T11:08:44.538Z,1020.09
2019-02-06T11:09:46.462Z,1019.93
2019-02-06T11:10:44.511Z,1020.02
2019-02-06T11:11:44.515Z,1020.07
2019-02-06T11:12:44.495Z,1019.93
2019-02-06T11:13:44.523Z,1020.04
2019-02-06T11:14:44.463Z,1020.02
2019-02-06T11:15:44.457Z,1020.06
2019-02-06T11:16:44.436Z,1019.82
2019-02-06T11:17:44.449Z,1019.85
2019-02-06T11:18:44.695Z,1019.80
2019-02-06T11:19:44.420Z,1019.93
2019-02-06T11:20:44.391Z,1019.91
2019-02-06T11:21:44.421Z,1019.91
2019-02-06T11:22:44.387Z,1019.89
2019-02-06T11:23:44.359Z,1019.85
2019-02-06T11:24:44.344Z,1019.96
2019-02-06T11:25:44.339Z,1019.97
2019-02-06T11:26:44.343Z,1019.90
2019-02-06T11:27:44.328Z,1019.96
2019-02-06T11:28:44.325Z,1020.00
2019-02-06T11:29:44.302Z,1019.93
2019-02-06T11:30:44.304Z,1019.79
2019-02-06T11:31:44.280Z,1019.76
2019-02-06T11:32:44.292Z,1019.74
2019-02-06T11:33:44.255Z,1019.72
2019-02-06T11:34:44.232Z,1019.82
2019-02-06T11:35:44.225Z,1019.78
2019-02-06T11:36:44.216Z,1019.68
2019-02-06T11:37:44.259Z,1019.62
2019-02-06T11:38:44.200Z,1019.61
2019-02-06T11:39:44.204Z,1019.54
2019-02-06T11:40:44.258Z,1019.55
2019-02-06T11:41:44.205Z,1019.40
2019-02-06T11:42:44.166Z,1019.49
2019-02-06T11:43:44.174Z,1019.47
2019-02-06T11:44:44.134Z,1019.47
2019-02-06T11:45:44.112Z,1019.58
2019-02-06T11:46:44.116Z,1019.42
2019-02-06T11:47:44.084Z,1019.46
2019-02-06T11:48:44.092Z,1019.53
2019-02-06T11:49:44.071Z,1019.60
2019-02-06T11:50:44.141Z,1019.53
2019-02-06T11:51:44.053Z,1019.55
2019-02-06T11:52:44.045Z,1019.50
2019-02-06T11:53:44.040Z,1019.50
2019-02-06T11:54:44.009Z,1019.36
2019-02-06T11:55:44.012Z,1019.37
2019-02-06T11:56:43.992Z,1019.38
2019-02-06T11:57:43.991Z,1019.36
2019-02-06T11:58:43.991Z,1019.17
2019-02-06T11:59:43.982Z,1019.22
2019-02-06T12:00:43.949Z,1019.29
2019-02-06T12:01:43.958Z,1019.14
2019-02-06T12:02:43.932Z,1019.09
2019-02-06T12:03:43.936Z,1019.15
2019-02-06T12:04:43.912Z,1019.03
2019-02-06T12:05:43.887Z,1019.24
2019-02-06T12:06:43.886Z,1019.04
2019-02-06T12:07:43.881Z,1019.01
2019-02-06T12:08:43.903Z,1019.03
2019-02-06T12:09:43.850Z,1018.99
2019-02-06T12:10:43.846Z,1019.06
2019-02-06T12:11:43.841Z,1019.08
2019-02-06T12:12:43.829Z,1018.99
2019-02-06T12:13:43.927Z,1019.02
2019-02-06T12:14:43.802Z,1018.95
2019-02-06T12:15:43.790Z,1018.94
2019-02-06T12:16:43.789Z,1018.97
2019-02-06T12:17:43.790Z,1018.97
2019-02-06T12:18:43.799Z,1019.08
2019-02-06T12:19:43.747Z,1019.07
2019-02-06T12:20:43.802Z,1018.84
2019-02-06T12:21:43.741Z,1018.89
2019-02-06T12:22:43.763Z,1018.89
2019-02-06T12:23:43.787Z,1018.86
2019-02-06T12:24:43.788Z,1018.87
2019-02-06T12:25:43.682Z,1018.97
2019-02-06T12:26:43.673Z,1018.93
2019-02-06T12:27:43.671Z,1018.92
2019-02-06T12:28:43.666Z,1018.75
2019-02-06T12:29:43.627Z,1018.88
2019-02-06T12:30:43.615Z,1018.74
2019-02-06T12:31:43.609Z,1018.69
2019-02-06T12:32:51.903Z,1018.63
2019-02-06T12:33:44.634Z,1018.71
2019-02-06T12:34:43.582Z,1018.67
2019-02-06T12:35:43.566Z,1018.70
2019-02-06T12:36:43.583Z,1018.64
2019-02-06T12:37:43.551Z,1018.59
2019-02-06T12:38:53.218Z,1018.64
2019-02-06T12:39:44.548Z,1018.59